Time;durP1;ratioP1;P1;durP2;ratioP2;P2;SDS_P1;SDS_P2;PMS_P1;PMS_P2;Temp;Humidity;BMP_temperature;BMP_pressure;BME280_temperature;BME280_humidity;BME280_pressure;Samples;Min_cycle;Max_cycle;Signal;HPM_P1;HPM_P2
2022/05/02 00:00:55;;;;;;;0.73;0.30;;;;;;;20.44;49.60;100482.19;5060040;28;20082;-46
2022/05/02 00:03:21;;;;;;;0.85;0.50;;;;;;;20.43;49.69;100463.88;5064204;28;20496;-46
2022/05/02 00:05:46;;;;;;;0.73;0.47;;;;;;;20.42;49.38;100472.81;5064657;28;20208;-46
2022/05/02 00:08:12;;;;;;;0.85;0.30;;;;;;;20.41;49.54;100471.19;5065944;28;20387;-47
2022/05/02 00:10:38;;;;;;;0.60;0.40;;;;;;;20.40;49.57;100469.56;5064592;28;20322;-48
2022/05/02 00:13:04;;;;;;;1.35;0.30;;;;;;;20.40;49.47;100453.69;5064905;28;20579;-48
2022/05/02 00:15:29;;;;;;;2.33;0.30;;;;;;;20.39;49.69;100449.44;5058158;28;20094;-46
2022/05/02 00:17:58;;;;;;;0.60;0.40;;;;;;;20.38;49.69;100448.63;5063634;28;20028;-46
2022/05/02 00:20:36;;;;;;;0.70;0.47;;;;;;;20.35;49.49;100432.31;5063626;28;20052;-46
2022/05/02 00:23:06;;;;;;;2.55;0.40;;;;;;;20.36;49.63;100444.53;5063901;28;20377;-47
2022/05/02 00:25:32;;;;;;;0.50;0.40;;;;;;;20.36;49.41;100437.41;5061249;28;20043;-47
2022/05/02 00:27:58;;;;;;;0.80;0.60;;;;;;;20.36;49.57;100434.75;5064494;28;20518;-46
2022/05/02 00:30:25;;;;;;;0.55;0.40;;;;;;;20.36;49.63;100440.03;5064102;28;20036;-45
2022/05/02 00:32:50;;;;;;;1.10;0.40;;;;;;;20.36;49.84;100428.66;5062497;28;20069;-50
2022/05/02 00:35:16;;;;;;;1.48;0.30;;;;;;;20.36;49.71;100426.00;5064758;28;20040;-48
2022/05/02 00:37:43;;;;;;;1.20;0.60;;;;;;;20.36;49.88;100426.00;5061419;28;20032;-45
2022/05/02 00:40:11;;;;;;;1.17;0.30;;;;;;;20.36;49.55;100415.41;5067359;28;20387;-44
2022/05/02 00:42:37;;;;;;;1.25;0.40;;;;;;;20.35;49.58;100414.59;5064865;28;20032;-46
2022/05/02 00:45:07;;;;;;;0.95;0.40;;;;;;;20.34;49.89;100412.16;5063702;28;20483;-47
2022/05/02 00:47:34;;;;;;;0.50;0.40;;;;;;;20.34;49.76;100418.28;5060566;28;20036;-44
2022/05/02 00:50:00;;;;;;;0.65;0.40;;;;;;;20.34;49.74;100423.56;5063516;28;20079;-47
2022/05/02 00:52:25;;;;;;;0.60;0.30;;;;;;;20.33;49.39;100427.22;5064374;28;20040;-43
2022/05/02 00:54:51;;;;;;;0.57;0.40;;;;;;;20.32;49.52;100422.97;5058146;28;20234;-46
2022/05/02 00:57:17;;;;;;;0.90;0.30;;;;;;;20.32;49.79;100432.75;5065334;28;20248;-50
2022/05/02 00:59:43;;;;;;;0.52;0.30;;;;;;;20.32;49.68;100430.91;5064189;28;20427;-44
2022/05/02 01:02:12;;;;;;;0.50;0.30;;;;;;;20.32;49.61;100430.91;5059286;28;20060;-46
2022/05/02 01:04:37;;;;;;;0.60;0.40;;;;;;;20.32;49.77;100438.06;5062558;28;20043;-45
2022/05/02 01:07:10;;;;;;;0.50;0.30;;;;;;;20.31;49.59;100431.94;5062840;28;20346;-47
2022/05/02 01:09:49;;;;;;;1.02;0.30;;;;;;;20.29;49.65;100427.88;5063072;28;20105;-47
2022/05/02 01:12:18;;;;;;;0.40;0.30;;;;;;;20.31;49.69;100431.13;5061532;28;20412;-48
2022/05/02 01:14:47;;;;;;;0.63;0.30;;;;;;;20.31;49.89;100429.31;5061514;28;20032;-43
2022/05/02 01:17:12;;;;;;;1.83;0.38;;;;;;;20.33;49.80;100429.06;5061590;28;20051;-48
2022/05/02 01:19:38;;;;;;;1.73;0.40;;;;;;;20.33;49.67;100426.41;5064743;28;20048;-49
2022/05/02 01:22:05;;;;;;;0.90;0.40;;;;;;;20.34;49.95;100435.97;5044407;28;20052;-47
2022/05/02 01:24:34;;;;;;;0.40;0.30;;;;;;;20.33;49.89;100426.41;5062033;28;20035;-45
2022/05/02 01:27:01;;;;;;;0.32;0.30;;;;;;;20.36;49.64;100416.22;5062314;28;20041;-44
2022/05/02 01:29:26;;;;;;;0.60;0.30;;;;;;;20.35;49.96;100419.91;5059251;28;20040;-50
2022/05/02 01:31:55;;;;;;;1.58;0.30;;;;;;;20.34;49.84;100418.28;5060973;28;20028;-44
2022/05/02 01:34:20;;;;;;;0.88;0.40;;;;;;;20.36;49.58;100418.88;5062038;28;20032;-46
2022/05/02 01:36:46;;;;;;;0.40;0.30;;;;;;;20.36;49.64;100412.78;5065253;28;20024;-46
2022/05/02 01:39:11;;;;;;;0.65;0.20;;;;;;;20.36;49.94;100416.22;5063540;28;20054;-48
2022/05/02 01:41:37;;;;;;;0.65;0.30;;;;;;;20.35;50.01;100411.16;5063665;28;20067;-48
2022/05/02 01:44:02;;;;;;;0.50;0.30;;;;;;;20.36;49.68;100415.41;5058263;28;20602;-44
2022/05/02 01:46:28;;;;;;;0.90;0.30;;;;;;;20.35;49.72;100404.03;5061578;28;20032;-45
2022/05/02 01:48:55;;;;;;;0.43;0.20;;;;;;;20.34;49.49;100412.16;5063415;28;20029;-49
2022/05/02 01:51:21;;;;;;;0.50;0.30;;;;;;;20.33;49.61;100406.06;5062383;28;20510;-49
2022/05/02 01:53:46;;;;;;;1.45;0.30;;;;;;;20.33;49.65;100405.25;5059925;28;20064;-45
2022/05/02 01:56:11;;;;;;;0.60;0.30;;;;;;;20.33;49.95;100405.25;5063885;28;20032;-45
2022/05/02 01:58:37;;;;;;;0.47;0.30;;;;;;;20.31;49.98;100402.84;5060355;28;20082;-51
2022/05/02 02:01:02;;;;;;;0.50;0.40;;;;;;;20.31;49.74;100407.31;5063399;28;20021;-46
2022/05/02 02:03:28;;;;;;;0.35;0.30;;;;;;;20.30;49.62;100397.75;5059919;28;20499;-44
2022/05/02 02:05:53;;;;;;;0.40;0.28;;;;;;;20.30;49.71;100403.06;5062533;28;20024;-48
2022/05/02 02:08:21;;;;;;;0.50;0.38;;;;;;;20.30;49.85;100397.75;5064206;28;20111;-47
2022/05/02 02:13:22;;;;;;;0.30;0.20;;;;;;;20.27;50.01;100391.06;5058060;22;20387;-46
2022/05/02 02:15:48;;;;;;;0.70;0.28;;;;;;;20.28;49.85;100391.88;5065316;28;20047;-46
2022/05/02 02:18:13;;;;;;;0.40;0.20;;;;;;;20.27;49.93;100392.88;5065900;28;20033;-49
2022/05/02 02:20:44;;;;;;;0.63;0.32;;;;;;;20.26;49.68;100391.25;5065246;28;20029;-44
2022/05/02 02:23:10;;;;;;;0.93;0.20;;;;;;;20.26;49.93;100399.19;5065440;28;20542;-47
2022/05/02 02:25:37;;;;;;;0.52;0.30;;;;;;;20.26;49.80;100388.63;5044888;28;20119;-47
2022/05/02 02:28:03;;;;;;;0.40;0.30;;;;;;;20.25;49.74;100393.09;5065410;28;20037;-45
2022/05/02 02:30:32;;;;;;;0.40;0.20;;;;;;;20.24;49.65;100385.38;5065452;28;20032;-50
2022/05/02 02:32:58;;;;;;;1.25;0.40;;;;;;;20.24;49.85;100374.78;5065265;28;20047;-46
2022/05/02 02:35:25;;;;;;;0.90;0.32;;;;;;;20.24;49.86;100386.19;5064703;28;20036;-45
2022/05/02 02:37:50;;;;;;;0.40;0.20;;;;;;;20.24;49.80;100385.38;5046933;28;20040;-49
2022/05/02 02:40:17;;;;;;;0.70;0.30;;;;;;;20.25;49.98;100381.69;5065855;28;20024;-45
2022/05/02 02:42:42;;;;;;;0.73;0.28;;;;;;;20.24;49.94;100385.38;5064231;28;20511;-45
2022/05/02 02:45:09;;;;;;;1.15;0.32;;;;;;;20.24;49.72;100380.88;5063803;28;20031;-47
2022/05/02 02:47:35;;;;;;;0.35;0.20;;;;;;;20.24;49.81;100388.00;5066821;28;20024;-44
2022/05/02 02:50:00;;;;;;;1.15;0.25;;;;;;;20.24;49.68;100385.38;5063198;28;20035;-44
2022/05/02 02:52:26;;;;;;;0.40;0.20;;;;;;;20.23;50.01;100383.75;5064543;28;20040;-45
2022/05/02 02:54:51;;;;;;;0.82;0.30;;;;;;;20.24;49.89;100390.66;5063974;28;20050;-45
2022/05/02 02:57:17;;;;;;;0.50;0.30;;;;;;;20.26;50.01;100393.91;5067024;28;20120;-44
2022/05/02 02:59:43;;;;;;;0.30;0.20;;;;;;;20.25;50.07;100387.81;5065030;28;20471;-44
2022/05/02 03:02:09;;;;;;;0.77;0.30;;;;;;;20.26;49.71;100391.25;5064120;28;20033;-47
2022/05/02 03:07:23;;;;;;;0.88;0.40;;;;;;;20.27;49.87;100390.25;5066755;28;20063;-44
2022/05/02 03:09:48;;;;;;;1.55;0.25;;;;;;;20.26;49.66;100389.44;5065079;28;20027;-46
2022/05/02 03:12:14;;;;;;;0.40;0.20;;;;;;;20.27;49.98;100384.94;5065909;28;20048;-48
2022/05/02 03:14:39;;;;;;;0.43;0.20;;;;;;;20.26;49.81;100389.44;5043485;28;20380;-48
2022/05/02 03:17:05;;;;;;;0.40;0.40;;;;;;;20.28;50.12;100390.03;5064099;28;20071;-46
2022/05/02 03:19:31;;;;;;;1.15;0.22;;;;;;;20.28;50.19;100392.69;5064514;28;20033;-47
2022/05/02 03:21:56;;;;;;;1.42;0.30;;;;;;;20.28;49.99;100391.88;5064737;28;20533;-43
2022/05/02 03:24:21;;;;;;;1.20;0.20;;;;;;;20.27;50.14;100387.59;5063680;28;20531;-46
2022/05/02 03:26:47;;;;;;;0.65;0.20;;;;;;;20.27;49.97;100392.88;5065593;28;20032;-45
2022/05/02 03:29:13;;;;;;;0.95;0.30;;;;;;;20.26;49.91;100388.63;5064690;28;20039;-45
2022/05/02 03:31:39;;;;;;;0.50;0.20;;;;;;;20.25;49.80;100387.81;5063156;28;20066;-48
2022/05/02 03:34:04;;;;;;;0.50;0.45;;;;;;;20.24;50.12;100385.38;5065295;28;20033;-48
2022/05/02 03:36:30;;;;;;;0.30;0.20;;;;;;;20.23;49.83;100386.38;5064445;28;20156;-47
2022/05/02 03:38:55;;;;;;;0.40;0.20;;;;;;;20.24;50.11;100385.38;5065777;28;20384;-44
2022/05/02 03:41:21;;;;;;;0.45;0.30;;;;;;;20.24;50.06;100377.44;5068378;28;20434;-44
2022/05/02 03:43:46;;;;;;;0.60;0.30;;;;;;;20.23;49.97;100378.44;5069384;28;20036;-46
2022/05/02 03:46:11;;;;;;;3.30;0.20;;;;;;;20.22;50.05;100382.94;5069127;28;20036;-49
2022/05/02 03:48:37;;;;;;;0.40;0.20;;;;;;;20.22;49.78;100377.63;5069429;28;20443;-49
2022/05/02 03:51:02;;;;;;;0.50;0.20;;;;;;;20.22;49.94;100377.63;5067810;28;20115;-45
2022/05/02 03:53:28;;;;;;;0.70;0.20;;;;;;;20.22;49.99;100380.28;5067605;28;20051;-45
2022/05/02 03:55:53;;;;;;;0.55;0.22;;;;;;;20.22;49.80;100382.94;5067220;28;20474;-46
2022/05/02 03:58:19;;;;;;;0.45;0.20;;;;;;;20.21;49.92;100376.03;5069594;28;20021;-45
2022/05/02 04:00:44;;;;;;;0.60;0.20;;;;;;;20.20;49.76;100384.97;5068730;28;20040;-43
2022/05/02 04:03:10;;;;;;;0.30;0.20;;;;;;;20.20;49.79;100377.03;5068101;28;20044;-46
2022/05/02 04:05:36;;;;;;;0.60;0.20;;;;;;;20.19;50.01;100378.88;5068818;28;20041;-45
2022/05/02 04:08:01;;;;;;;0.45;0.20;;;;;;;20.20;49.80;100377.03;5066975;28;20738;-46
2022/05/02 04:10:26;;;;;;;0.60;0.20;;;;;;;20.19;50.25;100383.34;5068635;28;20473;-48
2022/05/02 04:12:52;;;;;;;0.50;0.30;;;;;;;20.18;50.01;100377.25;5068011;28;20045;-46
2022/05/02 04:15:17;;;;;;;1.13;0.20;;;;;;;20.17;50.16;100375.63;5067877;28;20043;-45
2022/05/02 04:17:43;;;;;;;0.30;0.20;;;;;;;20.16;49.85;100379.28;5068649;28;20067;-47
2022/05/02 04:20:10;;;;;;;0.50;0.28;;;;;;;20.17;50.02;100380.09;5068539;28;20033;-48
2022/05/02 04:22:36;;;;;;;0.40;0.22;;;;;;;20.17;50.01;100378.25;5067984;28;20131;-44
2022/05/02 04:25:02;;;;;;;0.40;0.30;;;;;;;20.15;50.02;100382.94;5067754;28;20024;-48
2022/05/02 04:27:27;;;;;;;1.40;0.20;;;;;;;20.15;50.08;100377.66;5067225;28;20033;-47
2022/05/02 04:29:53;;;;;;;0.73;0.30;;;;;;;20.15;50.30;100384.78;5068445;28;20098;-45
2022/05/02 04:32:19;;;;;;;0.60;0.40;;;;;;;20.14;50.02;100378.69;5068499;28;20207;-44
2022/05/02 04:34:44;;;;;;;0.77;0.30;;;;;;;20.13;49.90;100385.00;5062388;28;20048;-48
2022/05/02 04:37:10;;;;;;;1.20;0.20;;;;;;;20.13;49.98;100389.47;5068158;28;20029;-46
2022/05/02 04:39:36;;;;;;;2.58;0.30;;;;;;;20.13;50.11;100392.94;5064549;28;20047;-45
2022/05/02 04:42:01;;;;;;;0.68;0.20;;;;;;;20.13;49.92;100394.75;5067965;28;20021;-44
2022/05/02 04:44:34;;;;;;;0.82;0.28;;;;;;;20.12;50.12;100401.88;5067600;28;20086;-43
2022/05/02 04:47:00;;;;;;;0.43;0.30;;;;;;;20.14;50.05;100402.50;5065574;28;20055;-46
2022/05/02 04:49:25;;;;;;;1.48;0.20;;;;;;;20.16;50.12;100399.63;5068797;28;20090;-45
2022/05/02 04:51:50;;;;;;;0.45;0.20;;;;;;;20.17;50.17;100395.97;5066719;28;20478;-44
2022/05/02 04:54:16;;;;;;;1.52;0.30;;;;;;;20.18;49.94;100397.59;5047746;28;20171;-45
2022/05/02 04:56:41;;;;;;;0.57;0.30;;;;;;;20.18;49.87;100398.41;5067411;28;20017;-46
2022/05/02 04:59:07;;;;;;;0.63;0.25;;;;;;;20.18;49.85;100398.41;5066806;28;20043;-44
2022/05/02 05:01:32;;;;;;;0.95;0.30;;;;;;;20.20;49.82;100401.66;5059533;28;20043;-45
2022/05/02 05:03:58;;;;;;;0.50;0.20;;;;;;;20.21;50.08;100394.53;5067557;28;20507;-44
2022/05/02 05:06:23;;;;;;;1.00;0.30;;;;;;;20.20;49.78;100391.06;5067198;28;20064;-45
2022/05/02 05:08:49;;;;;;;1.77;0.30;;;;;;;20.20;49.91;100401.66;5065360;28;20323;-43
2022/05/02 05:11:48;;;;;;;0.50;0.30;;;;;;;20.19;50.00;100399.22;5067060;28;20029;-46
2022/05/02 05:17:57;;;;;;;1.08;0.30;;;;;;;20.14;49.89;100401.69;4955783;28;20435;-46
2022/05/02 05:20:43;;;;;;;0.40;0.20;;;;;;;20.14;49.92;100399.84;4950420;28;20074;-45
2022/05/02 05:23:53;;;;;;;0.63;0.30;;;;;;;20.11;50.06;100392.31;4947225;29;20120;-47
2022/05/02 05:26:51;;;;;;;0.50;0.30;;;;;;;20.12;49.95;100401.06;4952541;28;20510;-48
2022/05/02 05:29:22;;;;;;;0.98;0.40;;;;;;;20.11;50.01;100394.97;4953553;28;20054;-44
2022/05/02 05:32:09;;;;;;;0.40;0.20;;;;;;;20.12;49.95;100393.94;4956714;28;20537;-46
2022/05/02 05:35:11;;;;;;;0.80;0.30;;;;;;;20.10;50.06;100401.28;4964736;28;20047;-44
2022/05/02 05:37:54;;;;;;;0.38;0.20;;;;;;;20.09;49.94;100388.25;4959446;28;20051;-44
2022/05/02 05:40:36;;;;;;;0.40;0.30;;;;;;;20.11;50.24;100399.44;4955896;28;20050;-48
2022/05/02 05:43:28;;;;;;;0.50;0.30;;;;;;;20.09;50.17;100396.19;4946191;28;20149;-47
2022/05/02 05:46:09;;;;;;;0.85;0.38;;;;;;;20.10;50.18;100406.56;4960281;28;20570;-48
2022/05/02 05:48:55;;;;;;;0.45;0.20;;;;;;;20.10;50.02;100401.28;4948012;28;20051;-45
2022/05/02 05:51:38;;;;;;;1.35;0.40;;;;;;;20.10;50.26;100403.09;4959237;28;20641;-51
2022/05/02 05:54:21;;;;;;;0.57;0.20;;;;;;;20.10;50.06;100403.91;4978022;28;20478;-43
2022/05/02 05:57:12;;;;;;;0.52;0.30;;;;;;;20.10;49.86;100406.56;5045410;28;20033;-46
2022/05/02 06:00:03;;;;;;;0.43;0.30;;;;;;;20.10;50.16;100398.63;5028069;28;20487;-46
2022/05/02 06:02:47;;;;;;;1.27;0.30;;;;;;;20.10;50.30;100409.22;5038337;28;20037;-45
2022/05/02 06:05:13;;;;;;;0.50;0.25;;;;;;;20.12;50.30;100420.41;5045448;28;20385;-51
2022/05/02 06:07:39;;;;;;;0.43;0.20;;;;;;;20.12;50.33;100409.00;5046949;28;20052;-46
2022/05/02 06:10:05;;;;;;;0.50;0.20;;;;;;;20.13;50.36;100416.72;5044498;28;20068;-46
2022/05/02 06:12:31;;;;;;;1.98;0.22;;;;;;;20.12;50.21;100414.28;5051902;28;20063;-39
2022/05/02 06:20:29;;;;;;;1.48;0.50;;;;;;;20.40;52.66;100416.66;5048476;28;20113;-49
2022/05/02 06:22:57;;;;;;;1.67;0.40;;;;;;;20.56;52.77;100416.19;5063023;28;20120;-48
2022/05/02 06:25:27;;;;;;;94.65;6.15;;;;;;;20.69;53.76;100405.53;5064637;28;20115;-45
2022/05/02 06:27:53;;;;;;;7.07;0.40;;;;;;;20.81;54.05;100406.47;5064894;28;20036;-44
2022/05/02 06:30:18;;;;;;;2.75;2.35;;;;;;;20.93;56.88;100403.16;5064209;28;20090;-43
2022/05/02 06:32:44;;;;;;;3.15;0.90;;;;;;;20.88;57.01;100415.19;5065025;28;20452;-43
2022/05/02 06:35:10;;;;;;;4.63;1.10;;;;;;;20.79;56.41;100413.03;5064903;28;20179;-44
2022/05/02 06:37:43;;;;;;;1.30;1.02;;;;;;;20.72;55.34;100413.06;5065869;28;20502;-44
2022/05/02 06:40:36;;;;;;;3.78;0.45;;;;;;;20.67;55.56;100415.53;5064139;28;20025;-47
2022/05/02 06:43:30;;;;;;;1.73;0.60;;;;;;;20.61;54.26;100412.91;5064927;28;20044;-43
2022/05/02 06:46:10;;;;;;;1.98;0.30;;;;;;;20.62;54.19;100414.53;5059454;28;20025;-47
2022/05/02 06:48:41;;;;;;;14.65;4.35;;;;;;;20.69;54.06;100415.31;5046300;28;20373;-44
2022/05/02 06:51:13;;;;;;;8.57;3.42;;;;;;;20.70;53.17;100414.28;5060165;28;20039;-45
2022/05/02 06:53:48;;;;;;;8.35;2.50;;;;;;;20.69;52.83;100410.84;5062406;28;20025;-46
2022/05/02 06:56:41;;;;;;;5.28;0.98;;;;;;;20.65;51.82;100404.34;5058906;28;20050;-45
2022/05/02 06:59:25;;;;;;;4.65;0.77;;;;;;;20.63;51.52;100416.16;5065398;28;20037;-49
2022/05/02 07:01:58;;;;;;;1.42;0.35;;;;;;;20.62;51.26;100412.69;5064219;28;20103;-50
2022/05/02 07:04:36;;;;;;;0.60;0.30;;;;;;;20.59;50.81;100413.13;5061438;28;20436;-46
2022/05/02 07:07:04;;;;;;;2.03;0.40;;;;;;;20.57;50.60;100411.72;5061517;28;20044;-46
2022/05/02 07:09:52;;;;;;;3.70;0.40;;;;;;;20.54;50.22;100420.88;5064300;28;20037;-46
2022/05/02 07:12:25;;;;;;;1.67;0.32;;;;;;;20.53;50.28;100414.78;5060469;28;20033;-44
2022/05/02 07:15:09;;;;;;;1.90;0.40;;;;;;;20.57;50.05;100412.53;5064287;28;20567;-46
2022/05/02 07:17:46;;;;;;;0.85;0.57;;;;;;;20.54;49.99;100415.59;5070275;28;20235;-47
2022/05/02 07:20:50;;;;;;;8.85;0.45;;;;;;;20.49;49.71;100412.75;5075121;28;20559;-49
2022/05/02 07:23:34;;;;;;;3.15;0.30;;;;;;;20.45;49.32;100409.72;5074805;28;20049;-46
2022/05/02 07:26:07;;;;;;;1.90;0.40;;;;;;;20.45;49.18;100409.72;5072824;28;20119;-45
2022/05/02 07:28:45;;;;;;;1.38;0.40;;;;;;;20.42;48.65;100409.31;5076875;28;20036;-44
2022/05/02 07:31:18;;;;;;;1.40;0.40;;;;;;;20.40;48.61;100412.19;5076520;28;20032;-43
2022/05/02 07:33:46;;;;;;;6.53;0.52;;;;;;;20.40;48.47;100406.06;5084895;28;20032;-50
2022/05/02 07:36:22;;;;;;;2.25;0.52;;;;;;;20.39;48.47;100407.09;5084501;28;20062;-43
2022/05/02 07:38:53;;;;;;;3.28;0.68;;;;;;;20.36;48.65;100410.13;5071584;28;20043;-43
2022/05/02 07:41:25;;;;;;;1.63;0.30;;;;;;;20.37;48.56;100403.81;5084638;28;20035;-46
2022/05/02 07:43:53;;;;;;;3.35;0.60;;;;;;;20.34;48.60;100399.75;5069665;28;20029;-47
2022/05/02 07:46:23;;;;;;;1.23;0.40;;;;;;;20.34;48.37;100401.59;5074011;28;20490;-47
2022/05/02 07:48:51;;;;;;;0.40;0.30;;;;;;;20.32;48.46;100399.16;5085628;28;20427;-49
2022/05/02 07:51:19;;;;;;;1.95;0.50;;;;;;;20.31;48.07;100397.56;5089655;28;20115;-44
2022/05/02 07:53:46;;;;;;;1.35;0.50;;;;;;;20.31;47.91;100394.09;5069985;28;20101;-42
2022/05/02 07:56:13;;;;;;;1.30;0.50;;;;;;;20.28;47.75;100390.03;5088685;28;20040;-46
2022/05/02 07:58:41;;;;;;;1.95;0.90;;;;;;;20.25;47.54;100400.22;5084366;28;20232;-42
2022/05/02 08:01:07;;;;;;;2.20;1.70;;;;;;;20.19;47.43;100394.75;5088336;28;20122;-48
2022/05/02 08:03:32;;;;;;;1.58;0.90;;;;;;;20.18;47.25;100397.59;5087212;28;20444;-42
2022/05/02 08:06:11;;;;;;;3.00;0.98;;;;;;;20.17;47.45;100398.63;5083041;28;20020;-45
2022/05/02 08:09:04;;;;;;;1.83;1.00;;;;;;;20.18;47.09;100403.69;5087890;28;20032;-49
2022/05/02 08:11:45;;;;;;;1.50;1.02;;;;;;;20.21;46.96;100399.81;5031431;28;20048;-56
2022/05/02 08:14:17;;;;;;;2.65;1.10;;;;;;;20.23;47.02;100404.91;5064855;28;20092;-47
2022/05/02 08:17:20;;;;;;;2.58;1.10;;;;;;;20.20;47.03;100400.84;5065154;28;20040;-47
2022/05/02 08:20:00;;;;;;;7.20;1.40;;;;;;;20.19;46.87;100402.69;5034030;28;20051;-48
2022/05/02 08:28:45;;;;;;;3.47;0.88;;;;;;;20.23;47.32;100407.56;5058483;28;20101;-44
2022/05/02 08:31:27;;;;;;;6.80;1.05;;;;;;;20.26;47.88;100399.19;5041298;28;20040;-47
2022/05/02 08:34:04;;;;;;;1.98;1.02;;;;;;;20.29;48.62;100407.53;5067396;28;20033;-44
2022/05/02 08:36:48;;;;;;;4.82;0.93;;;;;;;20.31;48.59;100396.75;5064239;28;20498;-49
2022/05/02 08:39:21;;;;;;;3.63;0.98;;;;;;;20.31;48.79;100402.84;5060804;28;20024;-46
2022/05/02 08:42:00;;;;;;;4.32;1.15;;;;;;;20.30;48.63;100400.41;5051550;28;20472;-47
2022/05/02 08:44:48;;;;;;;2.05;0.80;;;;;;;20.28;48.79;100402.44;5055696;28;20343;-51
2022/05/02 08:47:29;;;;;;;4.25;1.00;;;;;;;20.29;48.57;100398.78;5060735;28;20115;-49
2022/05/02 08:49:54;;;;;;;2.30;0.90;;;;;;;20.29;48.53;100399.59;5058123;28;20060;-46
2022/05/02 08:52:47;;;;;;;3.50;0.75;;;;;;;20.28;48.74;100403.25;5060435;28;20082;-48
2022/05/02 08:55:31;;;;;;;2.00;0.73;;;;;;;20.27;49.02;100404.28;5061613;28;20039;-49
2022/05/02 08:58:15;;;;;;;4.90;0.95;;;;;;;20.26;48.73;100407.94;5061411;28;20032;-46
2022/05/02 09:01:00;;;;;;;2.30;0.90;;;;;;;20.27;48.52;100409.56;5059102;28;20162;-47
2022/05/02 09:03:50;;;;;;;5.13;1.30;;;;;;;20.28;48.63;100402.44;5067691;28;20090;-50
2022/05/02 09:06:34;;;;;;;4.05;0.93;;;;;;;20.28;48.60;100403.25;5062105;28;20522;-48
2022/05/02 09:09:24;;;;;;;3.70;1.45;;;;;;;20.25;48.28;100402.88;5067603;28;20123;-46
2022/05/02 09:12:23;;;;;;;2.88;1.33;;;;;;;20.21;48.38;100408.56;5042945;28;20119;-46
2022/05/02 09:15:01;;;;;;;5.70;1.27;;;;;;;20.18;48.66;100403.69;5065884;28;20114;-48
2022/05/02 09:17:51;;;;;;;4.03;1.42;;;;;;;20.17;48.48;100404.72;5078355;28;20060;-48
2022/05/02 09:20:35;;;;;;;2.20;1.00;;;;;;;20.13;48.24;100403.50;5070060;28;20036;-47
2022/05/02 09:23:19;;;;;;;3.45;1.00;;;;;;;20.15;48.11;100404.13;5064489;28;20086;-47
2022/05/02 09:26:11;;;;;;;1.13;1.02;;;;;;;20.15;48.04;100404.13;5059039;28;20501;-45
2022/05/02 09:28:55;;;;;;;1.90;1.10;;;;;;;20.15;48.15;100403.31;5071508;28;20100;-46
2022/05/02 09:31:33;;;;;;;3.38;1.05;;;;;;;20.14;48.34;100397.19;5059316;28;20722;-50
2022/05/02 09:34:11;;;;;;;1.83;1.02;;;;;;;20.14;47.79;100405.13;5070006;28;20035;-44
2022/05/02 09:37:02;;;;;;;2.50;1.40;;;;;;;20.11;47.40;100400.25;5059221;28;20437;-45
2022/05/02 09:39:31;;;;;;;2.45;1.48;;;;;;;20.13;47.55;100405.34;5053101;28;20419;-49
2022/05/02 09:42:08;;;;;;;3.25;1.13;;;;;;;20.13;47.42;100400.06;5071525;28;20059;-48
2022/05/02 09:51:41;;;;;;;3.67;0.80;;;;;;;20.10;47.54;100406.56;5061861;28;20036;-47
2022/05/02 09:54:09;;;;;;;2.05;1.02;;;;;;;20.11;47.25;100400.25;5037779;28;20048;-42
2022/05/02 09:56:45;;;;;;;2.92;0.80;;;;;;;20.10;46.53;100393.34;5062373;28;20024;-43
2022/05/02 09:59:30;;;;;;;1.85;0.98;;;;;;;20.09;46.03;100393.56;5059944;28;20086;-45
2022/05/02 10:02:07;;;;;;;1.00;0.80;;;;;;;20.08;46.15;100395.38;5058400;28;20075;-49
2022/05/02 10:04:54;;;;;;;4.78;0.52;;;;;;;20.10;45.22;100392.53;5068918;28;20032;-47
2022/05/02 10:07:24;;;;;;;2.42;0.40;;;;;;;20.06;44.65;100391.31;5073429;28;20063;-48
2022/05/02 10:10:16;;;;;;;2.97;0.70;;;;;;;20.09;44.62;100397.00;5075743;28;20050;-51
2022/05/02 10:12:53;;;;;;;2.65;0.50;;;;;;;20.13;44.73;100390.28;5076828;28;20021;-53
2022/05/02 10:15:40;;;;;;;2.90;0.60;;;;;;;20.17;44.88;100375.63;5031535;28;20121;-53
2022/05/02 10:18:17;;;;;;;4.38;0.80;;;;;;;20.20;45.45;100369.91;5066905;28;20048;-54
2022/05/02 10:21:20;;;;;;;6.70;0.77;;;;;;;20.24;45.81;100364.22;5080079;28;20039;-54
2022/05/02 10:24:09;;;;;;;4.05;0.85;;;;;;;20.25;45.95;100361.34;5078927;28;20619;-49
2022/05/02 10:26:55;;;;;;;2.17;0.98;;;;;;;20.26;46.45;100362.16;5084610;28;20032;-53
2022/05/02 10:29:51;;;;;;;2.10;0.50;;;;;;;20.23;46.38;100352.81;5074957;28;20047;-52
2022/05/02 10:32:35;;;;;;;1.10;0.30;;;;;;;20.20;45.94;100354.03;5078462;28;20641;-55
2022/05/02 10:35:02;;;;;;;7.97;0.60;;;;;;;20.21;45.22;100354.84;5085902;28;20032;-54
2022/05/02 10:37:31;;;;;;;2.47;0.90;;;;;;;20.21;45.06;100346.91;5085262;28;20398;-56
2022/05/02 10:40:09;;;;;;;2.92;0.65;;;;;;;20.21;44.60;100352.22;5087079;28;20427;-56
2022/05/02 10:42:35;;;;;;;1.25;0.60;;;;;;;20.21;44.88;100347.72;5081611;28;20039;-48
2022/05/02 10:45:07;;;;;;;4.57;0.50;;;;;;;20.23;44.46;100357.28;5067582;28;20387;-60
2022/05/02 10:48:08;;;;;;;1.50;0.50;;;;;;;20.19;44.07;100357.72;5081561;28;20654;-58
2022/05/02 10:50:35;;;;;;;3.00;0.50;;;;;;;20.21;43.94;100346.91;5082150;28;20056;-52
2022/05/02 10:53:19;;;;;;;0.90;0.50;;;;;;;20.23;43.70;100346.72;5085387;28;20515;-54
2022/05/02 10:56:12;;;;;;;1.52;0.55;;;;;;;20.23;44.12;100346.72;5082824;28;20048;-44
2022/05/02 10:58:41;;;;;;;1.90;0.50;;;;;;;20.25;44.48;100349.97;5083467;28;20487;-49
2022/05/02 11:01:07;;;;;;;3.58;0.60;;;;;;;20.24;44.63;100346.50;5082262;28;20028;-54
2022/05/02 11:03:46;;;;;;;2.63;0.70;;;;;;;20.24;45.03;100353.63;5086329;28;20114;-53
2022/05/02 11:06:30;;;;;;;3.67;0.50;;;;;;;20.24;45.20;100350.97;5086013;28;20252;-53
2022/05/02 11:09:01;;;;;;;0.63;0.40;;;;;;;20.26;45.61;100351.59;5078089;28;20036;-48
2022/05/02 11:11:39;;;;;;;2.30;0.43;;;;;;;20.25;46.09;100348.13;5063522;28;20073;-52
2022/05/02 11:14:09;;;;;;;3.17;0.80;;;;;;;20.25;46.10;100345.47;5077899;28;20082;-51
2022/05/02 11:16:46;;;;;;;1.63;0.60;;;;;;;20.27;46.33;100345.28;5083045;28;20052;-49
2022/05/02 11:22:35;;;;;;;1.55;0.40;;;;;;;20.25;46.56;100342.03;5086096;28;20055;-48
2022/05/02 11:25:08;;;;;;;2.20;0.60;;;;;;;20.25;46.40;100344.66;5085759;28;20035;-47
2022/05/02 11:28:02;;;;;;;1.85;0.50;;;;;;;20.24;46.63;100343.03;5081870;28;20036;-50
2022/05/02 11:30:33;;;;;;;3.03;0.60;;;;;;;20.26;47.03;100338.34;5078578;28;20028;-45
2022/05/02 11:33:29;;;;;;;5.65;0.68;;;;;;;20.25;47.79;100337.53;5083304;28;20063;-48
2022/05/02 11:36:02;;;;;;;1.05;0.50;;;;;;;20.27;47.94;100334.69;5083543;28;20036;-46
2022/05/02 11:38:59;;;;;;;1.88;0.70;;;;;;;20.27;48.31;100337.34;5082743;28;20078;-41
2022/05/02 11:41:28;;;;;;;4.35;0.57;;;;;;;20.30;48.13;100342.22;5084152;28;20067;-46
2022/05/02 11:44:10;;;;;;;0.90;0.60;;;;;;;20.30;48.66;100336.91;5082173;28;20078;-44
2022/05/02 11:47:07;;;;;;;1.90;0.45;;;;;;;20.31;48.79;100339.34;5078577;28;20040;-47
2022/05/02 11:49:53;;;;;;;6.68;0.80;;;;;;;20.36;49.58;100330.75;5046508;28;20040;-51
2022/05/02 11:52:31;;;;;;;;;;;;;;;20.41;49.90;100333.59;5079544;28;20129;-47
2022/05/02 11:54:58;;;;;;;5.70;0.80;;;;;;;20.47;49.55;100325.63;5062952;28;19920;-50
2022/05/02 11:57:39;;;;;;;2.30;0.55;;;;;;;20.50;49.76;100327.84;5080658;28;20166;-53
2022/05/02 12:00:09;;;;;;;4.30;0.70;;;;;;;20.52;49.86;100327.66;5081686;28;20032;-51
2022/05/02 12:02:37;;;;;;;2.25;0.57;;;;;;;20.52;49.67;100325.00;5084610;28;20024;-47
2022/05/02 12:05:17;;;;;;;1.45;0.60;;;;;;;20.52;49.88;100322.34;5082520;28;20505;-49
2022/05/02 12:08:04;;;;;;;7.32;0.80;;;;;;;20.51;50.05;100318.91;5083854;28;20030;-47
2022/05/02 12:10:34;;;;;;;2.80;0.40;;;;;;;20.54;49.58;100318.47;5086570;28;20118;-47
2022/05/02 12:13:01;;;;;;;2.05;0.40;;;;;;;20.55;49.27;100321.94;5088423;28;20043;-47
2022/05/02 12:15:27;;;;;;;6.22;0.85;;;;;;;20.54;49.19;100317.66;5082188;28;20115;-47
2022/05/02 12:18:04;;;;;;;5.13;0.60;;;;;;;20.53;49.44;100318.69;5084199;28;20032;-51
2022/05/02 12:20:37;;;;;;;2.97;0.60;;;;;;;20.51;49.25;100312.78;5087167;28;20027;-47
2022/05/02 12:23:05;;;;;;;2.25;0.60;;;;;;;20.51;49.63;100307.50;5078678;28;20035;-45